Utica, NY

8:43 AM EST on November 28, 2014 (GMT -0500)
South Utica NY | Change Station
CLOSE
Current Station
Personal Weather Station
Location: Utica, NY
Elevation: 633 ft
Nearby Weather Stations

Elev 633 ft 43.08 °N, 75.26 °W | Updated 7 minutes ago

Overcast
Overcast
25.9 °F
Feels Like 26 °F
N
0.0
Wind Variable Wind from South
Gusts 0.0 mph

Today
High -- | Low -- °F
--% Chance of Precip.
Yesterday
High -- | Low -- °F
Precip. -- in
7:09 AM 4:28 PM
Waxing Crescent, 40% visible
Pressure 30.19 in
Visibility 10.0 miles
Clouds Mostly Cloudy 3200 ft
Overcast 4500 ft
Windchill 26 °F
Dew Point 24 °F
Humidity 92%
Rainfall 0.00 in
Snow Depth Not available.
UV 0 out of 12
Pollen .10 out of 12
Air Quality Not available.
Flu Activity Not available.
METAR KRME 281253Z AUTO 00000KT 10SM BKN032 OVC045 M06/M07 A3017 RMK AO2 SLP222 T10561072

More Conditions Fewer Conditions

Pressure 30.19 in
Visibility 10.0 miles
Clouds Mostly Cloudy 3200 ft
Overcast 4500 ft
Windchill 26 °F
Dew Point 24 °F
Humidity 92%
Rainfall 0.00 in
Snow Depth Not available.
UV 0 out of 12
Pollen .10 out of 12
Air Quality Not available.
Flu Activity Not available.
METAR KRME 281253Z AUTO 00000KT 10SM BKN032 OVC045 M06/M07 A3017 RMK AO2 SLP222 T10561072

More Conditions Fewer Conditions

Nowcast | as of 8:12 am EST on November 28, 2014

A band of snow will move across the area through 10 am. The snowfall rates in the band may reach one inch an hour for a brief period. Motorists should be alert to rapidly changing Road conditions.

×

10-Day Weather Forecast

Almanac

Astronomy

Nov. 28, 2014 Rise Set
Actual Time
Civil Twilight
Nautical Twilight
Astronomical Twilight
Moon
Length of Visible Light
Length of Day
Tomorrow will be .
, % of the Moon is Illuminated

Today's Extremes

State Highs State Lows

Community

WunderPhotos

Upload Photos

1,774,210 photos uploaded!

WunderBlogs® & News

Nearby

Air Quality

  Air Quality AQ Index Pollutant
Not available.

Snow Depth

Station Depth Elevation

Earthquake Activity

City Distance Mag. Time & Date
Minimum magnitude displayed is 2.5.

Coastal Water Temperatures

Place Temperature

Nearby Weather Stations